Time;durP1;ratioP1;P1;durP2;ratioP2;P2;SDS_P1;SDS_P2;PMS_P1;PMS_P2;Temp;Humidity;BMP_temperature;BMP_pressure;BME280_temperature;BME280_humidity;BME280_pressure;Samples;Min_cycle;Max_cycle;Signal;HPM_P1;HPM_P2
2023/03/19 00:01:07;;;;;;;11.98;5.60;;;12.10;64.20;;;;;;5034193;28;20387;-74
2023/03/19 00:03:33;;;;;;;11.40;6.30;;;12.00;64.20;;;;;;5034225;28;20535;-73
2023/03/19 00:05:59;;;;;;;11.48;6.00;;;12.00;62.90;;;;;;5034127;28;20828;-74
2023/03/19 00:08:24;;;;;;;9.20;6.10;;;12.10;62.70;;;;;;5033796;28;20470;-75
2023/03/19 00:10:50;;;;;;;11.82;5.88;;;12.20;59.50;;;;;;5032559;28;20379;-77
2023/03/19 00:13:16;;;;;;;11.18;5.88;;;12.30;58.50;;;;;;5034136;28;20394;-73
2023/03/19 00:15:42;;;;;;;9.80;6.20;;;12.30;59.40;;;;;;5032673;28;20387;-74
2023/03/19 00:18:07;;;;;;;10.43;6.10;;;12.30;57.80;;;;;;5051611;22;20420;-74
2023/03/19 00:20:33;;;;;;;11.25;5.70;;;12.20;58.20;;;;;;5053410;28;20398;-74
2023/03/19 00:22:59;;;;;;;9.90;6.32;;;12.20;57.10;;;;;;5054224;28;20413;-74
2023/03/19 00:25:25;;;;;;;11.90;5.93;;;12.20;56.80;;;;;;5056361;28;20381;-75
2023/03/19 00:27:51;;;;;;;8.20;5.45;;;12.10;57.30;;;;;;5057862;28;20417;-75
2023/03/19 00:30:17;;;;;;;11.98;6.00;;;12.00;57.90;;;;;;5057324;28;20402;-73
2023/03/19 00:32:43;;;;;;;9.90;6.07;;;11.90;58.90;;;;;;5056759;28;20389;-74
2023/03/19 00:35:09;;;;;;;11.00;6.60;;;11.80;59.40;;;;;;5059911;28;20386;-75
2023/03/19 00:37:36;;;;;;;10.75;6.40;;;11.70;62.20;;;;;;5061869;28;20389;-74
2023/03/19 00:40:03;;;;;;;13.02;7.22;;;11.60;63.60;;;;;;5060147;28;20385;-75
2023/03/19 00:42:29;;;;;;;12.10;6.77;;;11.50;64.50;;;;;;5066480;28;20419;-75
2023/03/19 00:44:55;;;;;;;13.00;6.60;;;11.50;65.60;;;;;;5065115;28;20389;-75
2023/03/19 00:47:21;;;;;;;19.13;6.80;;;11.50;66.20;;;;;;5051963;28;20516;-75
2023/03/19 00:49:47;;;;;;;16.95;6.82;;;11.30;66.60;;;;;;5051687;28;20386;-75
2023/03/19 00:52:13;;;;;;;11.48;6.40;;;11.30;67.60;;;;;;5053012;28;20481;-75
2023/03/19 00:54:38;;;;;;;13.18;6.80;;;11.20;67.20;;;;;;5053754;28;20468;-75
2023/03/19 00:57:04;;;;;;;17.08;6.40;;;11.00;68.00;;;;;;5053404;28;20421;-75
2023/03/19 00:59:30;;;;;;;12.55;6.78;;;10.90;69.50;;;;;;5053579;28;20448;-75
2023/03/19 01:01:55;;;;;;;14.07;7.10;;;10.90;69.10;;;;;;5053462;28;20382;-75
2023/03/19 01:04:22;;;;;;;13.20;6.97;;;10.70;71.40;;;;;;5053260;28;20392;-76
2023/03/19 01:06:47;;;;;;;11.23;6.50;;;10.60;72.20;;;;;;5052704;28;20479;-75
2023/03/19 01:09:13;;;;;;;15.60;7.40;;;10.60;73.00;;;;;;5052615;28;20953;-75
2023/03/19 01:11:39;;;;;;;13.68;7.63;;;10.50;73.80;;;;;;5052269;28;20390;-74
2023/03/19 01:14:05;;;;;;;15.40;7.80;;;10.50;75.10;;;;;;5053014;28;20377;-75
2023/03/19 01:16:31;;;;;;;17.60;8.00;;;10.40;76.70;;;;;;5052400;28;20464;-75
2023/03/19 01:18:57;;;;;;;11.73;7.17;;;10.40;76.60;;;;;;5052374;28;20396;-75
2023/03/19 01:21:22;;;;;;;14.57;7.60;;;10.50;75.60;;;;;;5052465;28;20389;-74
2023/03/19 01:23:50;;;;;;;11.40;7.07;;;10.60;73.70;;;;;;5052682;28;20401;-75
2023/03/19 01:26:16;;;;;;;15.05;8.20;;;10.50;73.30;;;;;;5051025;28;20412;-75
2023/03/19 01:28:42;;;;;;;12.00;6.57;;;10.50;73.20;;;;;;5052634;28;20478;-75
2023/03/19 01:31:08;;;;;;;12.80;7.22;;;10.60;72.20;;;;;;5051081;28;20426;-75
2023/03/19 01:33:34;;;;;;;15.00;7.50;;;10.60;73.10;;;;;;5052675;28;20455;-75
2023/03/19 01:36:04;;;;;;;16.33;7.43;;;10.70;72.70;;;;;;5052705;28;20405;-75
2023/03/19 01:38:31;;;;;;;15.93;7.13;;;10.80;71.30;;;;;;5052123;28;20389;-75
2023/03/19 01:40:56;;;;;;;11.65;6.55;;;10.90;69.00;;;;;;5052615;28;20421;-75
2023/03/19 01:43:26;;;;;;;8.80;5.93;;;10.90;69.00;;;;;;5053183;28;20743;-75
2023/03/19 01:45:57;;;;;;;11.40;6.00;;;10.80;69.00;;;;;;5053299;28;20397;-75
2023/03/19 01:48:43;;;;;;;11.60;5.90;;;10.70;70.30;;;;;;5058282;28;20378;-75
2023/03/19 01:51:12;;;;;;;9.52;6.20;;;10.70;70.70;;;;;;5064743;28;20445;-75
2023/03/19 01:53:41;;;;;;;11.25;6.40;;;10.70;69.20;;;;;;5057120;28;20373;-75
2023/03/19 01:56:14;;;;;;;11.45;6.68;;;10.60;70.50;;;;;;5069274;28;20392;-74
2023/03/19 01:58:41;;;;;;;12.85;5.85;;;10.70;71.60;;;;;;5060657;28;20401;-74
2023/03/19 02:01:07;;;;;;;9.82;6.15;;;10.70;69.60;;;;;;5053936;28;20397;-75
2023/03/19 02:03:33;;;;;;;13.80;6.77;;;10.80;68.30;;;;;;5054523;28;20459;-74
2023/03/19 02:05:59;;;;;;;12.57;5.90;;;10.70;68.70;;;;;;5054565;28;20452;-74
2023/03/19 02:08:27;;;;;;;12.10;6.20;;;10.70;69.00;;;;;;5054334;28;20843;-74
2023/03/19 02:10:54;;;;;;;13.63;5.70;;;10.60;69.90;;;;;;5054845;28;20469;-74
2023/03/19 02:13:21;;;;;;;9.90;5.68;;;10.50;70.70;;;;;;5052252;28;20472;-74
2023/03/19 02:15:48;;;;;;;8.73;6.38;;;10.50;71.30;;;;;;5051704;28;20382;-75
2023/03/19 02:18:14;;;;;;;11.20;6.70;;;10.50;71.10;;;;;;5051230;28;20398;-74
2023/03/19 02:21:01;;;;;;;14.93;6.57;;;10.60;71.20;;;;;;5051726;28;20388;-74
2023/03/19 02:23:36;;;;;;;14.10;6.40;;;10.60;70.60;;;;;;5051415;28;20377;-74
2023/03/19 02:26:17;;;;;;;11.50;6.20;;;10.70;69.20;;;;;;5051449;28;20809;-75
2023/03/19 02:28:45;;;;;;;13.13;6.38;;;10.80;68.00;;;;;;5051195;28;20397;-75
2023/03/19 02:31:12;;;;;;;11.68;6.50;;;10.80;67.30;;;;;;5051160;28;20421;-74
2023/03/19 02:33:38;;;;;;;13.45;6.40;;;10.80;67.10;;;;;;5051080;28;20381;-75
2023/03/19 02:36:08;;;;;;;11.15;6.18;;;10.80;68.20;;;;;;5050704;28;20409;-75
2023/03/19 02:38:35;;;;;;;9.93;6.50;;;10.80;68.90;;;;;;5050628;28;20413;-74
2023/03/19 02:41:03;;;;;;;10.82;6.75;;;10.90;67.10;;;;;;5050856;28;20850;-75
2023/03/19 02:43:31;;;;;;;12.00;6.60;;;11.00;66.90;;;;;;5050806;28;20754;-75
2023/03/19 02:45:57;;;;;;;12.20;6.20;;;10.90;66.80;;;;;;5050914;28;20399;-74
2023/03/19 02:48:23;;;;;;;11.18;6.68;;;11.00;66.70;;;;;;5050602;28;20382;-74
2023/03/19 02:50:49;;;;;;;17.40;7.47;;;11.00;67.60;;;;;;5050830;28;20381;-74
2023/03/19 02:53:15;;;;;;;16.02;6.82;;;11.00;66.90;;;;;;5049076;28;21000;-73
2023/03/19 02:55:41;;;;;;;13.30;6.35;;;10.90;66.50;;;;;;5050902;28;20378;-75
2023/03/19 02:58:07;;;;;;;11.25;6.15;;;10.90;67.60;;;;;;5050659;28;20862;-74
2023/03/19 03:00:33;;;;;;;15.10;6.47;;;10.90;67.10;;;;;;5049417;28;20486;-74
2023/03/19 03:02:59;;;;;;;12.13;6.57;;;10.80;66.90;;;;;;5053336;28;20385;-74
2023/03/19 03:05:25;;;;;;;16.17;6.60;;;10.70;69.00;;;;;;5054875;28;20377;-74
2023/03/19 03:07:50;;;;;;;14.50;6.40;;;10.90;67.50;;;;;;5054968;28;20412;-74
2023/03/19 03:10:16;;;;;;;10.80;6.37;;;10.90;66.90;;;;;;5055381;28;20425;-74
2023/03/19 03:12:42;;;;;;;10.27;6.65;;;10.90;66.80;;;;;;5061505;28;20389;-76
2023/03/19 03:15:08;;;;;;;12.80;6.57;;;10.90;67.10;;;;;;5070611;28;20393;-76
2023/03/19 03:17:39;;;;;;;11.75;6.70;;;11.00;66.90;;;;;;5056519;28;20385;-73
2023/03/19 03:20:06;;;;;;;16.20;6.70;;;11.00;65.80;;;;;;5054707;28;20397;-74
2023/03/19 03:22:32;;;;;;;9.48;6.18;;;10.90;67.00;;;;;;5053128;28;20400;-73
2023/03/19 03:24:58;;;;;;;11.60;6.20;;;10.80;67.80;;;;;;5054648;28;20385;-74
2023/03/19 03:27:23;;;;;;;13.90;6.55;;;10.80;68.00;;;;;;5054329;28;20762;-73
2023/03/19 03:29:49;;;;;;;12.68;6.60;;;10.80;68.50;;;;;;5054686;28;20397;-74
2023/03/19 03:32:15;;;;;;;12.75;6.70;;;10.80;67.60;;;;;;5054276;28;20378;-74
2023/03/19 03:34:41;;;;;;;14.35;6.25;;;10.90;66.20;;;;;;5054344;28;20389;-74
2023/03/19 03:37:06;;;;;;;13.00;6.70;;;10.80;67.00;;;;;;5054166;28;20877;-74
2023/03/19 03:39:32;;;;;;;13.02;6.38;;;10.80;67.50;;;;;;5054073;28;20389;-74
2023/03/19 03:41:57;;;;;;;11.57;6.10;;;10.90;67.00;;;;;;5054002;28;20914;-74
2023/03/19 03:44:23;;;;;;;16.17;7.17;;;10.80;67.80;;;;;;5054085;28;20727;-74
2023/03/19 03:46:48;;;;;;;12.20;6.67;;;10.70;69.50;;;;;;5053912;28;20393;-76
2023/03/19 03:49:14;;;;;;;15.97;6.70;;;10.60;70.10;;;;;;5053031;28;20476;-73
2023/03/19 03:51:40;;;;;;;12.80;6.90;;;10.60;70.80;;;;;;5054105;28;20805;-74
2023/03/19 03:54:06;;;;;;;16.67;6.93;;;10.70;69.80;;;;;;5054314;28;20746;-75
2023/03/19 03:56:32;;;;;;;10.57;6.90;;;10.80;69.40;;;;;;5053924;28;20770;-75
2023/03/19 03:58:57;;;;;;;9.57;6.47;;;10.80;70.70;;;;;;5053929;28;20393;-74
2023/03/19 04:01:23;;;;;;;15.40;6.70;;;10.80;70.00;;;;;;5052777;28;20389;-74
2023/03/19 04:03:49;;;;;;;13.45;6.35;;;10.90;68.50;;;;;;5054024;28;20472;-74
2023/03/19 04:06:17;;;;;;;14.48;6.97;;;10.80;69.50;;;;;;5053864;28;20492;-74
2023/03/19 04:08:43;;;;;;;11.80;5.90;;;10.90;68.60;;;;;;5053928;28;20888;-74
2023/03/19 04:11:09;;;;;;;10.10;6.10;;;10.90;69.00;;;;;;5053460;28;20393;-74
2023/03/19 04:13:38;;;;;;;12.32;6.28;;;11.00;68.80;;;;;;5053101;28;20411;-74
2023/03/19 04:16:08;;;;;;;10.20;5.95;;;10.90;68.80;;;;;;5053851;28;20389;-74
2023/03/19 04:18:34;;;;;;;15.77;5.60;;;10.80;69.90;;;;;;5053817;28;20898;-74
2023/03/19 04:21:00;;;;;;;11.98;5.72;;;10.90;69.80;;;;;;5053828;28;20425;-75
2023/03/19 04:23:26;;;;;;;9.32;6.32;;;10.90;69.90;;;;;;5052583;28;20975;-74
2023/03/19 04:25:52;;;;;;;10.80;6.05;;;10.90;70.20;;;;;;5053693;28;20401;-74
2023/03/19 04:28:17;;;;;;;10.95;5.57;;;10.90;70.30;;;;;;5053694;28;20781;-74
2023/03/19 04:30:43;;;;;;;13.70;6.78;;;10.90;71.80;;;;;;5052691;28;20961;-74
2023/03/19 04:33:10;;;;;;;9.93;6.20;;;11.00;70.10;;;;;;5054673;28;20455;-73
2023/03/19 04:35:36;;;;;;;17.73;6.50;;;10.90;70.30;;;;;;5053385;28;20390;-73
2023/03/19 04:38:02;;;;;;;12.93;6.77;;;10.90;70.50;;;;;;5056167;28;20409;-73
2023/03/19 04:40:28;;;;;;;13.45;5.90;;;10.90;70.70;;;;;;5055383;28;20378;-75
2023/03/19 04:42:54;;;;;;;12.43;5.90;;;11.00;69.70;;;;;;5056863;28;20412;-75
2023/03/19 04:45:20;;;;;;;12.75;5.88;;;11.00;69.20;;;;;;5062327;28;20866;-75
2023/03/19 04:47:45;;;;;;;10.15;6.20;;;11.00;69.70;;;;;;5054907;28;20405;-74
2023/03/19 04:50:12;;;;;;;14.80;6.47;;;11.00;69.10;;;;;;5065112;28;20526;-75
2023/03/19 04:52:38;;;;;;;11.23;5.57;;;11.00;69.20;;;;;;5067698;28;20967;-75
2023/03/19 04:55:05;;;;;;;10.70;6.20;;;11.00;70.50;;;;;;5055864;28;20377;-75
2023/03/19 04:57:31;;;;;;;9.60;5.70;;;11.10;68.40;;;;;;5053430;28;20889;-73
2023/03/19 04:59:57;;;;;;;10.50;5.80;;;11.10;69.30;;;;;;5053190;28;20390;-73
2023/03/19 05:02:22;;;;;;;10.13;6.00;;;11.10;68.70;;;;;;5052372;28;20381;-74
2023/03/19 05:04:48;;;;;;;12.77;6.72;;;11.10;69.80;;;;;;5053415;28;20724;-74
2023/03/19 05:07:13;;;;;;;12.45;5.85;;;11.10;70.80;;;;;;5051625;28;20427;-74
2023/03/19 05:09:39;;;;;;;10.02;6.00;;;11.20;68.80;;;;;;5052587;28;20767;-74
2023/03/19 05:12:05;;;;;;;14.68;5.82;;;11.20;69.60;;;;;;5052579;28;20888;-74
2023/03/19 05:14:31;;;;;;;11.48;6.13;;;11.20;69.70;;;;;;5052781;28;20385;-73
2023/03/19 05:16:57;;;;;;;13.77;6.07;;;11.10;70.30;;;;;;5052620;28;20388;-73
2023/03/19 05:19:24;;;;;;;11.30;5.80;;;11.20;69.40;;;;;;5051930;28;20877;-73
2023/03/19 05:21:49;;;;;;;10.80;5.40;;;11.30;68.90;;;;;;5052478;28;20389;-74
2023/03/19 05:24:15;;;;;;;8.57;5.20;;;11.40;67.10;;;;;;5052131;28;20397;-74
2023/03/19 05:26:41;;;;;;;13.83;4.80;;;11.30;67.70;;;;;;5052050;28;20759;-74
2023/03/19 05:29:09;;;;;;;9.87;5.00;;;11.40;66.80;;;;;;5052264;28;20499;-74
2023/03/19 05:31:36;;;;;;;8.48;4.40;;;11.50;67.10;;;;;;5052202;28;20460;-73
2023/03/19 05:34:01;;;;;;;7.10;4.10;;;11.70;64.40;;;;;;5052343;28;20378;-74
2023/03/19 05:36:27;;;;;;;10.00;4.28;;;11.80;63.40;;;;;;5052197;28;20382;-74
2023/03/19 05:38:53;;;;;;;8.65;4.50;;;11.80;62.90;;;;;;5051730;28;20392;-74
2023/03/19 05:41:18;;;;;;;8.27;4.03;;;11.80;62.80;;;;;;5054373;28;20389;-75
2023/03/19 05:43:44;;;;;;;6.70;3.85;;;12.00;62.30;;;;;;5062444;28;20381;-73
2023/03/19 05:46:10;;;;;;;5.65;3.50;;;11.90;62.50;;;;;;5062723;28;20438;-73
2023/03/19 05:48:36;;;;;;;5.45;3.63;;;12.00;61.80;;;;;;5056937;28;21005;-74
2023/03/19 05:51:02;;;;;;;9.48;4.00;;;12.00;60.40;;;;;;5054470;28;20754;-75
2023/03/19 05:53:28;;;;;;;7.10;3.87;;;12.00;60.30;;;;;;5054214;28;20381;-75
2023/03/19 05:55:53;;;;;;;6.25;3.60;;;11.90;61.60;;;;;;5053112;28;20392;-75
2023/03/19 05:58:19;;;;;;;5.87;3.60;;;11.90;62.20;;;;;;5050441;28;20789;-74
2023/03/19 06:00:45;;;;;;;3.40;3.10;;;11.90;63.00;;;;;;5051740;28;20393;-75
2023/03/19 06:03:11;;;;;;;5.20;3.00;;;12.10;61.00;;;;;;5050128;28;20439;-75
2023/03/19 06:05:37;;;;;;;7.45;3.60;;;12.10;61.40;;;;;;5051476;28;20905;-76
2023/03/19 06:08:03;;;;;;;4.35;3.33;;;12.40;59.20;;;;;;5051691;28;20488;-75
2023/03/19 06:10:28;;;;;;;5.40;3.40;;;12.40;58.60;;;;;;5051429;28;20464;-74
2023/03/19 06:12:54;;;;;;;5.93;3.53;;;12.40;59.40;;;;;;5051703;28;20427;-75
2023/03/19 06:15:19;;;;;;;5.40;3.67;;;12.20;60.90;;;;;;5051823;28;20723;-77
2023/03/19 06:17:45;;;;;;;7.45;3.75;;;12.20;61.50;;;;;;5052107;28;20889;-73
2023/03/19 06:20:11;;;;;;;5.47;3.60;;;12.30;60.90;;;;;;5090925;22;20432;-73
2023/03/19 06:22:37;;;;;;;6.63;3.80;;;12.40;60.80;;;;;;5071267;28;20376;-73
2023/03/19 06:25:03;;;;;;;5.30;3.37;;;12.20;61.70;;;;;;5071189;28;20364;-73
2023/03/19 06:27:28;;;;;;;6.95;3.67;;;12.30;60.80;;;;;;5071243;28;20410;-72
2023/03/19 06:29:54;;;;;;;7.10;4.13;;;12.20;62.20;;;;;;5050166;28;20882;-73
2023/03/19 06:32:20;;;;;;;9.23;4.03;;;12.10;64.90;;;;;;5050898;28;20385;-75
2023/03/19 06:34:45;;;;;;;6.15;3.90;;;12.10;63.70;;;;;;5051350;28;20396;-74
2023/03/19 06:37:11;;;;;;;4.72;3.60;;;12.00;64.10;;;;;;5050219;28;20443;-73
2023/03/19 06:39:37;;;;;;;7.10;3.70;;;12.10;64.00;;;;;;5050810;28;20397;-71
2023/03/19 06:42:02;;;;;;;6.40;3.90;;;12.10;64.20;;;;;;5050954;28;20451;-74
2023/03/19 06:44:28;;;;;;;5.25;3.97;;;12.10;63.10;;;;;;5049694;28;20393;-74
2023/03/19 06:46:54;;;;;;;9.25;3.55;;;12.20;61.40;;;;;;5050880;28;20402;-72
2023/03/19 06:49:20;;;;;;;7.07;3.80;;;12.10;61.00;;;;;;5050910;28;20436;-72
2023/03/19 06:51:46;;;;;;;7.17;4.10;;;12.00;61.60;;;;;;5050648;28;20381;-73
2023/03/19 06:54:11;;;;;;;7.77;4.23;;;12.10;61.40;;;;;;5050646;28;20389;-72
2023/03/19 06:56:37;;;;;;;6.60;4.20;;;12.00;62.30;;;;;;5050719;28;20381;-73
2023/03/19 06:59:02;;;;;;;8.82;4.10;;;12.00;62.20;;;;;;5051059;28;20397;-73
2023/03/19 07:01:28;;;;;;;7.72;4.60;;;12.00;62.30;;;;;;5052400;28;20579;-74
2023/03/19 07:03:54;;;;;;;6.90;4.37;;;12.10;62.60;;;;;;5052287;28;20386;-74
2023/03/19 07:06:20;;;;;;;6.47;4.30;;;12.10;63.00;;;;;;5051374;28;20423;-73
2023/03/19 07:08:45;;;;;;;6.50;3.95;;;12.10;63.90;;;;;;5050640;28;20464;-73
2023/03/19 07:11:11;;;;;;;10.63;4.60;;;12.30;63.20;;;;;;5050456;28;20389;-72
2023/03/19 07:13:37;;;;;;;6.00;4.10;;;12.40;61.10;;;;;;5050439;28;20392;-73
2023/03/19 07:16:03;;;;;;;8.43;4.20;;;12.50;61.10;;;;;;5050611;28;20381;-74
2023/03/19 07:18:29;;;;;;;8.90;4.20;;;12.60;60.30;;;;;;5051077;28;20397;-75
2023/03/19 07:20:54;;;;;;;7.90;4.13;;;12.60;59.60;;;;;;5050587;28;20873;-72
2023/03/19 07:23:20;;;;;;;9.90;4.30;;;12.80;59.20;;;;;;5050636;28;20397;-74
2023/03/19 07:25:46;;;;;;;5.70;4.13;;;12.80;57.90;;;;;;5051148;28;20393;-74
2023/03/19 07:28:12;;;;;;;6.53;4.00;;;12.80;57.60;;;;;;5051306;28;20854;-74
2023/03/19 07:30:38;;;;;;;7.45;4.05;;;12.80;57.90;;;;;;5050892;28;20443;-73
2023/03/19 07:33:06;;;;;;;10.07;4.03;;;13.00;55.90;;;;;;5051137;28;20381;-74
2023/03/19 07:35:31;;;;;;;6.22;4.00;;;12.80;57.80;;;;;;5051428;28;20462;-76
2023/03/19 07:37:58;;;;;;;7.63;4.38;;;12.90;56.90;;;;;;5051273;28;20469;-74
2023/03/19 07:40:24;;;;;;;9.95;3.60;;;13.00;56.10;;;;;;5050610;28;20494;-73
2023/03/19 07:42:50;;;;;;;7.22;4.40;;;13.00;54.30;;;;;;5050615;28;20385;-73
2023/03/19 07:45:15;;;;;;;5.88;3.78;;;12.80;57.00;;;;;;5050647;28;20404;-74
2023/03/19 07:47:41;;;;;;;6.38;4.43;;;12.80;57.10;;;;;;5051123;28;20919;-73
2023/03/19 07:50:07;;;;;;;6.80;4.40;;;12.60;59.00;;;;;;5054442;28;20378;-76
2023/03/19 07:52:33;;;;;;;9.00;4.63;;;12.50;60.50;;;;;;5054234;28;20472;-74
2023/03/19 07:54:58;;;;;;;8.80;3.90;;;12.60;58.40;;;;;;5054981;28;20473;-74
2023/03/19 07:57:25;;;;;;;9.25;4.60;;;12.80;57.10;;;;;;5055139;28;20381;-72
2023/03/19 07:59:51;;;;;;;6.13;3.97;;;12.80;57.10;;;;;;5055640;28;20966;-73
2023/03/19 08:02:17;;;;;;;5.88;3.90;;;13.10;55.10;;;;;;5054495;28;20386;-74
2023/03/19 08:04:42;;;;;;;4.93;3.63;;;13.40;51.90;;;;;;5055169;28;20378;-73
2023/03/19 08:07:11;;;;;;;4.50;3.50;;;13.60;50.20;;;;;;5055062;28;20841;-72
2023/03/19 08:09:38;;;;;;;5.78;3.50;;;13.40;50.40;;;;;;5054553;28;20388;-74
2023/03/19 08:12:05;;;;;;;5.18;3.90;;;13.40;51.90;;;;;;5053847;28;20387;-72
2023/03/19 08:14:32;;;;;;;6.93;4.07;;;13.40;51.30;;;;;;5054051;28;20381;-74
2023/03/19 08:16:58;;;;;;;5.22;3.90;;;13.40;52.00;;;;;;5054624;28;20390;-73
2023/03/19 08:19:24;;;;;;;6.18;3.55;;;13.50;51.10;;;;;;5054352;28;20757;-76
2023/03/19 08:21:50;;;;;;;6.47;4.05;;;13.80;47.70;;;;;;5053955;28;20899;-74
2023/03/19 08:24:16;;;;;;;5.72;3.50;;;13.70;49.00;;;;;;5055609;28;20483;-74
2023/03/19 08:26:41;;;;;;;4.43;3.50;;;13.90;48.10;;;;;;5059788;28;20920;-75
2023/03/19 08:29:07;;;;;;;6.53;3.80;;;14.10;46.80;;;;;;5060095;28;20393;-72
2023/03/19 08:31:33;;;;;;;5.47;3.88;;;14.10;47.10;;;;;;5055509;28;20416;-72
2023/03/19 08:34:04;;;;;;;5.15;3.63;;;14.40;45.10;;;;;;5053686;28;20405;-74
2023/03/19 08:36:30;;;;;;;4.60;3.65;;;14.40;44.30;;;;;;5052552;28;20415;-73
2023/03/19 08:38:57;;;;;;;6.00;3.70;;;14.50;43.90;;;;;;5053377;28;20386;-73
2023/03/19 08:41:23;;;;;;;4.68;3.70;;;14.70;42.70;;;;;;5053129;28;20446;-73
2023/03/19 08:43:48;;;;;;;5.50;3.50;;;15.00;40.10;;;;;;5053581;28;20386;-76
2023/03/19 08:46:15;;;;;;;5.63;3.60;;;14.80;41.20;;;;;;5053295;28;20500;-73
2023/03/19 08:48:41;;;;;;;8.52;3.35;;;14.90;40.30;;;;;;5053523;28;20822;-74
2023/03/19 08:51:08;;;;;;;5.32;3.47;;;15.10;39.10;;;;;;5054208;28;20474;-75
2023/03/19 08:53:34;;;;;;;6.90;3.78;;;15.00;39.30;;;;;;5053741;28;20391;-73
2023/03/19 08:56:02;;;;;;;8.43;3.83;;;14.80;41.20;;;;;;5053448;28;20382;-72
2023/03/19 08:58:28;;;;;;;7.60;4.10;;;14.90;41.10;;;;;;5052948;28;20488;-75
2023/03/19 09:01:04;;;;;;;7.10;4.10;;;14.90;40.80;;;;;;5052237;28;20448;-72
2023/03/19 09:03:30;;;;;;;8.77;4.20;;;14.60;43.90;;;;;;5052707;28;20378;-73
2023/03/19 09:06:00;;;;;;;7.25;4.45;;;14.80;42.20;;;;;;5052714;28;20496;-72
2023/03/19 09:08:27;;;;;;;6.17;4.00;;;15.00;40.70;;;;;;5052703;28;20469;-72
2023/03/19 09:10:52;;;;;;;7.13;3.97;;;15.00;41.20;;;;;;5052937;28;20381;-73
2023/03/19 09:13:18;;;;;;;5.20;4.00;;;15.00;41.20;;;;;;5053187;28;20428;-73
2023/03/19 09:15:43;;;;;;;8.00;4.60;;;15.30;39.90;;;;;;5053725;28;20460;-74
2023/03/19 09:18:12;;;;;;;6.07;4.25;;;15.30;39.20;;;;;;5053397;28;20435;-75
2023/03/19 09:20:38;;;;;;;6.60;4.30;;;15.40;39.20;;;;;;5053564;28;20439;-74
2023/03/19 09:23:03;;;;;;;9.70;4.70;;;15.50;38.50;;;;;;5053555;28;20385;-72
2023/03/19 09:25:29;;;;;;;4.90;4.37;;;15.70;37.40;;;;;;5053368;28;20392;-72
2023/03/19 09:27:55;;;;;;;6.75;4.72;;;15.80;36.30;;;;;;5053420;28;20408;-74
2023/03/19 09:30:20;;;;;;;6.85;4.28;;;16.10;35.00;;;;;;5053568;28;20862;-73
2023/03/19 09:32:46;;;;;;;7.10;3.80;;;15.90;35.80;;;;;;5053387;28;20379;-73
2023/03/19 09:35:11;;;;;;;9.93;5.50;;;16.00;35.70;;;;;;5053276;28;20738;-72
2023/03/19 09:37:37;;;;;;;8.00;5.03;;;16.00;36.00;;;;;;5053013;28;20424;-73
2023/03/19 09:40:04;;;;;;;10.38;4.00;;;16.30;35.50;;;;;;5052337;28;20939;-73
2023/03/19 09:42:47;;;;;;;5.88;4.50;;;16.30;35.60;;;;;;5052342;28;20377;-72
2023/03/19 09:45:15;;;;;;;6.60;3.65;;;16.70;33.30;;;;;;5051326;28;20476;-71
2023/03/19 09:47:42;;;;;;;4.63;4.00;;;17.10;30.90;;;;;;5051919;28;20412;-73
2023/03/19 09:50:14;;;;;;;5.97;3.80;;;17.10;30.90;;;;;;5052151;28;20381;-73
2023/03/19 09:52:48;;;;;;;5.50;4.10;;;17.10;31.00;;;;;;5051361;28;20745;-72
2023/03/19 09:55:22;;;;;;;6.15;3.90;;;16.70;32.70;;;;;;5050615;28;20417;-73
2023/03/19 09:57:49;;;;;;;6.10;4.15;;;17.00;31.80;;;;;;5051871;28;20393;-74
2023/03/19 10:00:24;;;;;;;6.55;4.00;;;17.30;30.20;;;;;;5051705;28;20746;-73
2023/03/19 10:03:14;;;;;;;11.57;5.90;;;17.30;30.10;;;;;;5051609;28;20901;-73
2023/03/19 10:05:50;;;;;;;6.30;4.55;;;17.50;29.50;;;;;;5051873;28;20862;-74
2023/03/19 10:08:52;;;;;;;5.95;4.40;;;17.60;28.40;;;;;;5055968;28;20547;-72
2023/03/19 10:11:44;;;;;;;4.90;3.90;;;17.90;28.00;;;;;;5043044;28;20390;-71
2023/03/19 10:14:28;;;;;;;6.10;3.70;;;17.90;26.90;;;;;;5055199;28;20377;-72
2023/03/19 10:16:57;;;;;;;5.30;4.10;;;17.20;29.90;;;;;;5051216;28;20876;-74
2023/03/19 10:19:41;;;;;;;4.80;3.70;;;17.10;30.60;;;;;;5051535;28;20880;-73
2023/03/19 10:22:15;;;;;;;6.20;4.30;;;17.50;27.70;;;;;;5051188;28;20489;-73
2023/03/19 10:24:43;;;;;;;5.65;4.18;;;17.30;29.30;;;;;;5052255;28;20893;-75
2023/03/19 10:27:13;;;;;;;8.27;4.07;;;16.90;31.30;;;;;;5053435;28;20458;-75
2023/03/19 10:29:40;;;;;;;4.55;4.00;;;16.60;31.50;;;;;;5053165;28;20405;-74
2023/03/19 10:32:14;;;;;;;4.90;4.30;;;16.60;32.00;;;;;;5052838;28;20392;-74
2023/03/19 10:34:49;;;;;;;8.18;4.63;;;16.20;33.90;;;;;;5051861;28;20443;-74
2023/03/19 10:37:18;;;;;;;5.30;4.20;;;15.90;36.30;;;;;;5052237;28;20409;-74
2023/03/19 10:39:45;;;;;;;6.05;3.90;;;16.10;34.80;;;;;;5050702;28;20874;-73
2023/03/19 10:42:26;;;;;;;9.57;4.00;;;16.50;32.30;;;;;;5052388;28;20381;-74
2023/03/19 10:45:04;;;;;;;6.60;4.60;;;16.70;31.50;;;;;;5052258;28;20385;-74
2023/03/19 10:47:37;;;;;;;6.35;4.60;;;16.30;32.60;;;;;;5052511;28;20405;-74
2023/03/19 10:50:03;;;;;;;5.15;4.65;;;16.20;33.30;;;;;;5053554;28;20400;-76
2023/03/19 10:52:33;;;;;;;5.83;4.90;;;16.10;35.20;;;;;;5052094;28;20378;-73
2023/03/19 10:55:16;;;;;;;5.88;4.82;;;15.60;43.00;;;;;;5050850;28;20867;-73
2023/03/19 10:57:44;;;;;;;6.85;5.28;;;15.00;48.30;;;;;;5050963;28;20416;-75
2023/03/19 11:00:23;;;;;;;7.13;6.10;;;14.60;53.00;;;;;;5050892;28;20388;-74
2023/03/19 11:02:52;;;;;;;9.70;6.28;;;14.70;51.60;;;;;;5050654;28;20464;-73
2023/03/19 11:05:26;;;;;;;6.57;5.97;;;14.90;51.20;;;;;;5049969;28;20397;-75
2023/03/19 11:07:58;;;;;;;8.30;5.63;;;15.00;49.40;;;;;;5050839;28;20886;-72
2023/03/19 11:10:26;;;;;;;9.98;5.40;;;15.30;46.60;;;;;;5051652;28;20385;-73
2023/03/19 11:12:59;;;;;;;7.40;6.30;;;15.40;46.20;;;;;;5051831;28;20386;-75
2023/03/19 11:15:36;;;;;;;7.68;6.20;;;15.60;45.20;;;;;;5051847;28;20386;-76
2023/03/19 11:18:15;;;;;;;6.68;5.50;;;15.70;43.80;;;;;;5051245;28;20469;-74
2023/03/19 11:20:41;;;;;;;6.38;5.55;;;15.80;43.00;;;;;;5050591;28;20385;-73
2023/03/19 11:23:15;;;;;;;7.85;6.03;;;15.80;43.20;;;;;;5052327;28;20400;-75
2023/03/19 11:25:52;;;;;;;7.30;6.15;;;15.70;43.10;;;;;;5055008;28;20417;-73
2023/03/19 11:28:21;;;;;;;7.43;6.07;;;15.50;44.90;;;;;;5054874;28;20385;-74
2023/03/19 11:31:14;;;;;;;11.05;7.35;;;15.60;44.00;;;;;;5054659;28;20365;-72
2023/03/19 11:34:01;;;;;;;9.52;6.90;;;15.50;48.00;;;;;;5055821;28;20459;-75
2023/03/19 11:36:38;;;;;;;10.00;7.70;;;15.30;50.40;;;;;;5056109;28;20416;-74
2023/03/19 11:39:31;;;;;;;9.30;6.90;;;15.20;50.80;;;;;;5056163;28;20382;-74
2023/03/19 11:42:15;;;;;;;11.87;7.20;;;15.30;50.40;;;;;;5056118;28;20525;-75
2023/03/19 11:44:56;;;;;;;8.00;6.47;;;15.40;49.30;;;;;;5055577;28;20380;-74
2023/03/19 11:47:36;;;;;;;7.32;6.00;;;15.50;48.50;;;;;;5055801;28;20512;-75
2023/03/19 11:50:21;;;;;;;11.33;7.10;;;15.50;47.20;;;;;;5056035;28;20381;-75
2023/03/19 11:53:08;;;;;;;7.50;6.70;;;15.60;50.70;;;;;;5053939;28;20378;-73
2023/03/19 11:55:50;;;;;;;8.98;7.20;;;15.20;50.10;;;;;;5053661;28;20382;-74
2023/03/19 11:58:33;;;;;;;8.35;6.80;;;15.30;50.10;;;;;;5054063;28;20757;-75
2023/03/19 12:01:35;;;;;;;8.73;6.97;;;15.40;50.90;;;;;;5053458;28;20412;-73
2023/03/19 12:04:46;;;;;;;8.13;6.10;;;14.90;52.20;;;;;;5052969;28;20421;-73
2023/03/19 12:07:33;;;;;;;10.87;6.70;;;14.70;53.60;;;;;;5037231;28;20409;-73
2023/03/19 12:10:26;;;;;;;14.90;7.80;;;14.50;61.00;;;;;;5053207;28;20378;-72
2023/03/19 12:13:15;;;;;;;7.93;6.60;;;14.20;71.00;;;;;;5053204;28;20435;-72
2023/03/19 12:15:51;;;;;;;12.15;7.10;;;14.20;70.30;;;;;;5053063;28;20381;-73
2023/03/19 12:18:41;;;;;;;12.70;7.10;;;14.10;73.50;;;;;;5052936;28;20369;-73
2023/03/19 12:21:41;;;;;;;11.48;6.80;;;14.60;69.50;;;;;;5052871;28;20451;-74
2023/03/19 12:24:30;;;;;;;9.20;6.80;;;14.90;66.10;;;;;;5052548;28;20369;-73
2023/03/19 12:27:26;;;;;;;7.50;5.50;;;14.80;67.50;;;;;;5052729;28;20455;-72
2023/03/19 12:30:12;;;;;;;7.13;5.13;;;15.10;63.30;;;;;;5054120;28;20476;-71
2023/03/19 12:33:06;;;;;;;6.20;4.30;;;15.30;58.60;;;;;;5052743;28;20374;-73
2023/03/19 12:35:37;;;;;;;6.28;4.68;;;16.20;45.30;;;;;;5052747;28;20382;-72
2023/03/19 12:38:12;;;;;;;6.78;5.40;;;16.00;50.60;;;;;;5053012;28;20924;-72
2023/03/19 12:40:42;;;;;;;8.18;5.35;;;16.10;54.50;;;;;;5052902;28;20389;-73
2023/03/19 12:43:22;;;;;;;7.15;5.53;;;16.00;56.80;;;;;;5052737;28;20406;-72
2023/03/19 12:45:53;;;;;;;8.10;6.45;;;16.10;54.20;;;;;;5052793;28;20464;-73
2023/03/19 12:48:30;;;;;;;9.93;6.72;;;16.40;54.30;;;;;;5052562;28;20377;-72
2023/03/19 12:51:02;;;;;;;7.10;6.10;;;16.70;53.90;;;;;;5052699;28;20394;-73
2023/03/19 12:53:48;;;;;;;9.60;6.63;;;16.90;47.70;;;;;;5053002;28;20380;-73